Sapucaia do Sul, Brazil
Current Conditions -  °F | °C
As of 1:00 PM on Saturday 25 Oct 2014 (Local Time) from SBCO Reporting Station
Broken Clouds Broken Clouds  
Wind Chill: 77°   Ceiling: 2500
Heat Index: 79°   Visibility: 4mi
Dew Point: 66°   Wind: 8mph
Humidity: 69%   Direction: 290°WNW
Pressure: 29.94"   Gusts: NA
Location:  29.82°S, 51.15°W
Report Text: SBCO 251500Z 29007KT 6000 BKN025 25/19 Q1014
Loading
Personal Weather Stations






























Interactive Weather Map
Tropical Storm Tracking
New forecast layout! Learn more

10-Day Weather Forecast

Advertisements
Track Severe Weather on mobile